Turi, Estonia

3:02 AM EEST on October 21, 2014 (GMT +0300)
Ulemiste | Change Station
CLOSE
Current Station
Airport
Location: Tallinn,
Elevation: 131 ft
Nearby Weather Stations

Elev 131 ft 59.41 °N, 24.83 °E | Updated 12 minutes ago

Overcast
Overcast
41 °F
Feels Like 34 °F
N
13
Wind Variable Wind from NE

Today
High -- | Low -- °F
--% Chance of Precip.
Yesterday
High -- | Low -- °F
Precip. -- in
8:08 AM 5:56 PM
Waning Crescent, 8% visible
Pressure 29.56 in
Visibility 6.2 miles
Clouds Mostly Cloudy 1000 ft
Mostly Cloudy 1500 ft
Overcast 2200 ft
Windchill 34 °F
Dew Point 37 °F
Humidity 87%
Rainfall 0.00 in
Snow Depth Not available.
UV 0 out of 12
Pollen Not available.
Air Quality Not available.
Flu Activity Not available.
METAR EETN 202350Z 05011KT 9999 BKN010 BKN015 OVC022 05/03 Q1001

More Conditions Fewer Conditions

Pressure 29.56 in
Visibility 6.2 miles
Clouds Mostly Cloudy 1000 ft
Mostly Cloudy 1500 ft
Overcast 2200 ft
Windchill 34 °F
Dew Point 37 °F
Humidity 87%
Rainfall 0.00 in
Snow Depth Not available.
UV 0 out of 12
Pollen Not available.
Air Quality Not available.
Flu Activity Not available.
METAR EETN 202350Z 05011KT 9999 BKN010 BKN015 OVC022 05/03 Q1001

More Conditions Fewer Conditions

10-Day Weather Forecast

Almanac

Astronomy

Oct. 21, 2014 Rise Set
Actual Time 8:08 AM EEST 5:56 PM EEST
Civil Twilight 7:27 AM EEST 6:37 PM EEST
Nautical Twilight 6:40 AM EEST 7:24 PM EEST
Astronomical Twilight 5:53 AM EEST 8:10 PM EEST
Moon 5:01 AM EEST 5:07 PM EEST
Length of Visible Light 11h 10m
Length of Day
9h 47m
Tomorrow will be 5m 3s shorter.
Waning Crescent, 8% of the Moon is Illuminated
Oct 20
Waning Crescent
Oct 23
New
Oct 30
First Quarter
Nov 6
Full
Nov 14
Last Quarter

Yesterday's Extremes

Country Highs Country Lows

Community

WunderPhotos

Upload Photos

1,763,551 photos uploaded!

Nearby

Snow Depth

Not available.

Earthquake Activity

City Distance Mag. Time & Date
No recent earthquake activity has been reported nearby.
Minimum magnitude displayed is 2.5.

Coastal Water Temperatures

Place Temperature
No Stations Reporting

Nearby Weather Stations